Cattitude — 2EWK3 — position and weather

sailwx.info

Track history (hours):
 
Tides and Currents Weather Stations Pressure Air Temp Water Temp Dewpoint Dewpoint Depression Visibility Wind Speed Wind Dir Waves Ship Positions

Cattitude

Last reported at 2017-Oct-17 01:56 UTC. Time now 2017-Nov-19 18:17 UTC.
Position N 41°08' E 001°57'.
Warning: this ship's position is 33 days out of date.

Type: Sailing vessel. MMSI: 235088709.

Date/timePositionNaut miles runAvg speedWind from/ knotsBaromVisibWave heightAir tempDewpointWater temp
2017-Oct-17 01:56N 41°08' E 001°57'4 9.2
2017-Oct-17 01:27N 41°06' E 001°51'5 9.7
2017-Oct-17 00:57N 41°04' E 001°46'  
2017-Oct-11 20:27N 37°60' W 000°31'4 9.2
2017-Oct-11 20:00N 37°56' W 000°33'5 9.3
2017-Oct-11 19:29N 37°52' W 000°36'4 8.8
2017-Oct-11 18:59N 37°48' W 000°39'4 8.2
2017-Oct-11 18:30N 37°45' W 000°42'2 2.9
2017-Oct-11 17:55N 37°45' W 000°44'0 0.4
2017-Oct-11 17:30N 37°45' W 000°45'0 0.1
2017-Oct-11 17:00N 37°45' W 000°45'  
2017-Oct-07 13:15N 37°45' W 000°45'0 0.0
2017-Oct-07 12:57N 37°45' W 000°45'0 0.0
2017-Oct-07 12:23N 37°45' W 000°45'0 0.0
2017-Oct-07 11:56N 37°45' W 000°45'0 0.0
2017-Oct-07 11:23N 37°45' W 000°45'0 0.0
2017-Oct-07 10:50N 37°45' W 000°45'  
Track history (hours):
 
Tides and Currents Weather Stations Pressure Air Temp Water Temp Dewpoint Dewpoint Depression Visibility Wind Speed Wind Dir Waves Ship Positions

Cattitude

Last reported at 2017-Oct-17 01:56 UTC. Time now 2017-Nov-19 18:17 UTC.
Position N 41°08' E 001°57'.
Warning: this ship's position is 33 days out of date.

Type: Sailing vessel. MMSI: 235088709.

Date/timePositionNaut miles runAvg speedWind from/ knotsBaromVisibWave heightAir tempDewpointWater temp
2017-Oct-17 01:56N 41°08' E 001°57'4 9.2
2017-Oct-17 01:27N 41°06' E 001°51'5 9.7
2017-Oct-17 00:57N 41°04' E 001°46'  
2017-Oct-11 20:27N 37°60' W 000°31'4 9.2
2017-Oct-11 20:00N 37°56' W 000°33'5 9.3
2017-Oct-11 19:29N 37°52' W 000°36'4 8.8
2017-Oct-11 18:59N 37°48' W 000°39'4 8.2
2017-Oct-11 18:30N 37°45' W 000°42'2 2.9
2017-Oct-11 17:55N 37°45' W 000°44'0 0.4
2017-Oct-11 17:30N 37°45' W 000°45'0 0.1
2017-Oct-11 17:00N 37°45' W 000°45'  
2017-Oct-07 13:15N 37°45' W 000°45'0 0.0
2017-Oct-07 12:57N 37°45' W 000°45'0 0.0
2017-Oct-07 12:23N 37°45' W 000°45'0 0.0
2017-Oct-07 11:56N 37°45' W 000°45'0 0.0
2017-Oct-07 11:23N 37°45' W 000°45'0 0.0
2017-Oct-07 10:50N 37°45' W 000°45'  

Dump ship's entire track history